sensor_id;sensor_type;location;lat;lon;timestamp;P1;durP1;ratioP1;P2;durP2;ratioP2
61702;SDS011;47622;47.726;3.298;2022-08-19T00:01:31;10.00;;;7.75;;
61702;SDS011;47622;47.726;3.298;2022-08-19T00:03:58;7.82;;;6.97;;
61702;SDS011;47622;47.726;3.298;2022-08-19T00:06:27;10.85;;;8.95;;
61702;SDS011;47622;47.726;3.298;2022-08-19T00:08:54;10.75;;;8.63;;
61702;SDS011;47622;47.726;3.298;2022-08-19T00:11:20;10.00;;;8.70;;
61702;SDS011;47622;47.726;3.298;2022-08-19T00:13:46;10.15;;;8.68;;
61702;SDS011;47622;47.726;3.298;2022-08-19T00:16:14;11.02;;;8.63;;
61702;SDS011;47622;47.726;3.298;2022-08-19T00:18:40;10.43;;;8.80;;
61702;SDS011;47622;47.726;3.298;2022-08-19T00:21:06;12.15;;;9.90;;
61702;SDS011;47622;47.726;3.298;2022-08-19T00:23:34;12.25;;;10.23;;
61702;SDS011;47622;47.726;3.298;2022-08-19T00:26:02;10.98;;;9.52;;
61702;SDS011;47622;47.726;3.298;2022-08-19T00:28:31;11.75;;;10.02;;
61702;SDS011;47622;47.726;3.298;2022-08-19T00:30:58;12.20;;;9.15;;
61702;SDS011;47622;47.726;3.298;2022-08-19T00:33:25;13.18;;;8.30;;
61702;SDS011;47622;47.726;3.298;2022-08-19T00:35:51;12.27;;;8.70;;
61702;SDS011;47622;47.726;3.298;2022-08-19T00:38:17;10.70;;;8.57;;
61702;SDS011;47622;47.726;3.298;2022-08-19T00:40:43;10.50;;;8.18;;
61702;SDS011;47622;47.726;3.298;2022-08-19T00:43:11;14.32;;;8.50;;
61702;SDS011;47622;47.726;3.298;2022-08-19T00:45:41;10.85;;;9.23;;
61702;SDS011;47622;47.726;3.298;2022-08-19T00:48:08;11.98;;;9.27;;
61702;SDS011;47622;47.726;3.298;2022-08-19T00:50:35;12.50;;;8.60;;
61702;SDS011;47622;47.726;3.298;2022-08-19T00:53:01;10.38;;;8.77;;
61702;SDS011;47622;47.726;3.298;2022-08-19T00:55:28;11.32;;;8.30;;
61702;SDS011;47622;47.726;3.298;2022-08-19T00:58:00;12.50;;;8.93;;
61702;SDS011;47622;47.726;3.298;2022-08-19T01:00:29;9.52;;;8.38;;
61702;SDS011;47622;47.726;3.298;2022-08-19T01:02:56;10.40;;;8.85;;
61702;SDS011;47622;47.726;3.298;2022-08-19T01:05:24;8.85;;;7.90;;
61702;SDS011;47622;47.726;3.298;2022-08-19T01:07:54;9.07;;;8.18;;
61702;SDS011;47622;47.726;3.298;2022-08-19T01:10:23;9.20;;;7.32;;
61702;SDS011;47622;47.726;3.298;2022-08-19T01:12:52;9.10;;;8.13;;
61702;SDS011;47622;47.726;3.298;2022-08-19T01:15:21;9.43;;;8.15;;
61702;SDS011;47622;47.726;3.298;2022-08-19T01:17:50;10.95;;;9.10;;
61702;SDS011;47622;47.726;3.298;2022-08-19T01:20:20;11.63;;;9.32;;
61702;SDS011;47622;47.726;3.298;2022-08-19T01:22:55;10.20;;;8.18;;
61702;SDS011;47622;47.726;3.298;2022-08-19T01:25:28;9.75;;;8.35;;
61702;SDS011;47622;47.726;3.298;2022-08-19T01:27:57;12.23;;;8.43;;
61702;SDS011;47622;47.726;3.298;2022-08-19T01:30:25;10.20;;;9.02;;
61702;SDS011;47622;47.726;3.298;2022-08-19T01:32:54;9.73;;;8.73;;
61702;SDS011;47622;47.726;3.298;2022-08-19T01:35:22;11.77;;;9.00;;
61702;SDS011;47622;47.726;3.298;2022-08-19T01:37:59;11.50;;;9.15;;
61702;SDS011;47622;47.726;3.298;2022-08-19T01:40:29;13.43;;;10.38;;
61702;SDS011;47622;47.726;3.298;2022-08-19T01:42:57;10.35;;;9.25;;
61702;SDS011;47622;47.726;3.298;2022-08-19T01:45:24;16.90;;;13.02;;
61702;SDS011;47622;47.726;3.298;2022-08-19T01:47:52;16.20;;;13.10;;
61702;SDS011;47622;47.726;3.298;2022-08-19T01:50:18;14.75;;;11.70;;
61702;SDS011;47622;47.726;3.298;2022-08-19T01:52:45;16.27;;;12.60;;
61702;SDS011;47622;47.726;3.298;2022-08-19T01:55:13;14.65;;;12.80;;
61702;SDS011;47622;47.726;3.298;2022-08-19T01:57:42;18.40;;;12.40;;
61702;SDS011;47622;47.726;3.298;2022-08-19T02:00:12;16.85;;;13.50;;
61702;SDS011;47622;47.726;3.298;2022-08-19T02:02:41;16.90;;;13.85;;
61702;SDS011;47622;47.726;3.298;2022-08-19T02:05:08;14.90;;;11.88;;
61702;SDS011;47622;47.726;3.298;2022-08-19T02:07:35;14.18;;;11.73;;
61702;SDS011;47622;47.726;3.298;2022-08-19T02:10:06;16.85;;;12.25;;
61702;SDS011;47622;47.726;3.298;2022-08-19T02:12:38;13.93;;;11.82;;
61702;SDS011;47622;47.726;3.298;2022-08-19T02:15:03;15.15;;;10.85;;
61702;SDS011;47622;47.726;3.298;2022-08-19T02:17:31;12.95;;;11.23;;
61702;SDS011;47622;47.726;3.298;2022-08-19T02:19:57;14.60;;;11.68;;
61702;SDS011;47622;47.726;3.298;2022-08-19T02:22:23;13.40;;;10.57;;
61702;SDS011;47622;47.726;3.298;2022-08-19T02:24:51;13.50;;;11.13;;
61702;SDS011;47622;47.726;3.298;2022-08-19T02:27:18;15.07;;;11.18;;
61702;SDS011;47622;47.726;3.298;2022-08-19T02:29:45;14.63;;;11.23;;
61702;SDS011;47622;47.726;3.298;2022-08-19T02:32:12;14.77;;;10.93;;
61702;SDS011;47622;47.726;3.298;2022-08-19T02:34:38;16.05;;;12.00;;
61702;SDS011;47622;47.726;3.298;2022-08-19T02:37:05;16.08;;;11.52;;
61702;SDS011;47622;47.726;3.298;2022-08-19T02:39:51;14.00;;;11.70;;
61702;SDS011;47622;47.726;3.298;2022-08-19T02:42:17;14.38;;;11.60;;
61702;SDS011;47622;47.726;3.298;2022-08-19T02:44:43;12.75;;;10.50;;
61702;SDS011;47622;47.726;3.298;2022-08-19T02:47:11;13.13;;;11.00;;
61702;SDS011;47622;47.726;3.298;2022-08-19T02:49:38;14.02;;;11.77;;
61702;SDS011;47622;47.726;3.298;2022-08-19T02:52:04;14.15;;;12.10;;
61702;SDS011;47622;47.726;3.298;2022-08-19T02:54:29;11.40;;;9.07;;
61702;SDS011;47622;47.726;3.298;2022-08-19T02:56:55;10.50;;;9.10;;
61702;SDS011;47622;47.726;3.298;2022-08-19T02:59:21;14.05;;;10.68;;
61702;SDS011;47622;47.726;3.298;2022-08-19T03:01:47;16.98;;;11.02;;
61702;SDS011;47622;47.726;3.298;2022-08-19T03:04:13;13.88;;;11.20;;
61702;SDS011;47622;47.726;3.298;2022-08-19T03:06:41;12.45;;;10.27;;
61702;SDS011;47622;47.726;3.298;2022-08-19T03:09:09;12.30;;;10.57;;
61702;SDS011;47622;47.726;3.298;2022-08-19T03:11:37;12.75;;;10.25;;
61702;SDS011;47622;47.726;3.298;2022-08-19T03:14:04;14.25;;;10.55;;
61702;SDS011;47622;47.726;3.298;2022-08-19T03:16:32;14.65;;;11.07;;
61702;SDS011;47622;47.726;3.298;2022-08-19T03:19:00;16.63;;;10.60;;
61702;SDS011;47622;47.726;3.298;2022-08-19T03:21:28;16.67;;;11.65;;
61702;SDS011;47622;47.726;3.298;2022-08-19T03:23:55;15.68;;;11.88;;
61702;SDS011;47622;47.726;3.298;2022-08-19T03:26:22;17.30;;;11.02;;
61702;SDS011;47622;47.726;3.298;2022-08-19T03:28:48;14.23;;;12.32;;
61702;SDS011;47622;47.726;3.298;2022-08-19T03:31:15;15.10;;;12.23;;
61702;SDS011;47622;47.726;3.298;2022-08-19T03:33:44;14.90;;;11.65;;
61702;SDS011;47622;47.726;3.298;2022-08-19T03:36:14;13.68;;;12.10;;
61702;SDS011;47622;47.726;3.298;2022-08-19T03:38:43;15.82;;;13.07;;
61702;SDS011;47622;47.726;3.298;2022-08-19T03:41:12;16.10;;;12.65;;
61702;SDS011;47622;47.726;3.298;2022-08-19T03:43:41;14.50;;;12.55;;
61702;SDS011;47622;47.726;3.298;2022-08-19T03:46:09;16.20;;;13.38;;
61702;SDS011;47622;47.726;3.298;2022-08-19T03:48:38;18.50;;;14.23;;
61702;SDS011;47622;47.726;3.298;2022-08-19T03:51:06;18.92;;;14.10;;
61702;SDS011;47622;47.726;3.298;2022-08-19T03:53:33;19.60;;;14.85;;
61702;SDS011;47622;47.726;3.298;2022-08-19T03:56:00;19.63;;;15.25;;
61702;SDS011;47622;47.726;3.298;2022-08-19T03:58:27;19.00;;;14.68;;
61702;SDS011;47622;47.726;3.298;2022-08-19T04:00:55;23.42;;;14.18;;
61702;SDS011;47622;47.726;3.298;2022-08-19T04:03:22;18.75;;;15.30;;
61702;SDS011;47622;47.726;3.298;2022-08-19T04:05:49;18.25;;;14.90;;
61702;SDS011;47622;47.726;3.298;2022-08-19T04:08:16;16.27;;;13.75;;
61702;SDS011;47622;47.726;3.298;2022-08-19T04:10:45;20.95;;;15.10;;
61702;SDS011;47622;47.726;3.298;2022-08-19T04:13:13;21.33;;;15.38;;
61702;SDS011;47622;47.726;3.298;2022-08-19T04:15:41;19.42;;;15.30;;
61702;SDS011;47622;47.726;3.298;2022-08-19T04:18:08;17.33;;;14.57;;
61702;SDS011;47622;47.726;3.298;2022-08-19T04:20:39;21.27;;;16.15;;
61702;SDS011;47622;47.726;3.298;2022-08-19T04:23:09;18.98;;;15.18;;
61702;SDS011;47622;47.726;3.298;2022-08-19T04:25:37;21.58;;;14.75;;
61702;SDS011;47622;47.726;3.298;2022-08-19T04:28:08;21.58;;;15.45;;
61702;SDS011;47622;47.726;3.298;2022-08-19T04:30:42;16.23;;;14.23;;
61702;SDS011;47622;47.726;3.298;2022-08-19T04:33:11;17.60;;;14.88;;
61702;SDS011;47622;47.726;3.298;2022-08-19T04:35:39;20.08;;;15.88;;
61702;SDS011;47622;47.726;3.298;2022-08-19T04:38:07;19.88;;;15.63;;
61702;SDS011;47622;47.726;3.298;2022-08-19T04:40:34;21.45;;;15.98;;
61702;SDS011;47622;47.726;3.298;2022-08-19T04:43:24;16.63;;;14.13;;
61702;SDS011;47622;47.726;3.298;2022-08-19T04:45:49;19.30;;;14.45;;
61702;SDS011;47622;47.726;3.298;2022-08-19T04:48:16;15.20;;;13.05;;
61702;SDS011;47622;47.726;3.298;2022-08-19T04:50:53;17.63;;;13.60;;
61702;SDS011;47622;47.726;3.298;2022-08-19T04:53:30;18.23;;;13.40;;
61702;SDS011;47622;47.726;3.298;2022-08-19T04:55:58;17.20;;;13.15;;
61702;SDS011;47622;47.726;3.298;2022-08-19T04:58:29;16.75;;;13.98;;
61702;SDS011;47622;47.726;3.298;2022-08-19T05:00:55;18.08;;;14.50;;
61702;SDS011;47622;47.726;3.298;2022-08-19T05:03:21;20.50;;;15.15;;
61702;SDS011;47622;47.726;3.298;2022-08-19T05:05:47;16.98;;;14.30;;
61702;SDS011;47622;47.726;3.298;2022-08-19T05:08:14;18.58;;;14.70;;
61702;SDS011;47622;47.726;3.298;2022-08-19T05:10:46;18.00;;;14.95;;
61702;SDS011;47622;47.726;3.298;2022-08-19T05:13:15;23.00;;;15.80;;
61702;SDS011;47622;47.726;3.298;2022-08-19T05:15:43;17.83;;;13.90;;
61702;SDS011;47622;47.726;3.298;2022-08-19T05:18:10;17.05;;;13.57;;
61702;SDS011;47622;47.726;3.298;2022-08-19T05:20:54;18.35;;;13.27;;
61702;SDS011;47622;47.726;3.298;2022-08-19T05:23:39;18.73;;;14.48;;
61702;SDS011;47622;47.726;3.298;2022-08-19T05:26:06;18.83;;;15.45;;
61702;SDS011;47622;47.726;3.298;2022-08-19T05:28:34;19.42;;;15.05;;
61702;SDS011;47622;47.726;3.298;2022-08-19T05:31:00;18.58;;;14.40;;
61702;SDS011;47622;47.726;3.298;2022-08-19T05:33:26;21.40;;;15.93;;
61702;SDS011;47622;47.726;3.298;2022-08-19T05:35:52;17.35;;;14.52;;
61702;SDS011;47622;47.726;3.298;2022-08-19T05:38:19;16.65;;;13.80;;
61702;SDS011;47622;47.726;3.298;2022-08-19T05:40:45;17.58;;;13.77;;
61702;SDS011;47622;47.726;3.298;2022-08-19T05:43:12;19.25;;;14.93;;
61702;SDS011;47622;47.726;3.298;2022-08-19T05:45:41;17.25;;;13.32;;
61702;SDS011;47622;47.726;3.298;2022-08-19T05:48:08;18.40;;;14.57;;
61702;SDS011;47622;47.726;3.298;2022-08-19T05:50:40;16.48;;;13.88;;
61702;SDS011;47622;47.726;3.298;2022-08-19T05:53:07;17.75;;;13.55;;
61702;SDS011;47622;47.726;3.298;2022-08-19T05:55:34;15.75;;;12.80;;
61702;SDS011;47622;47.726;3.298;2022-08-19T05:58:03;15.57;;;12.63;;
61702;SDS011;47622;47.726;3.298;2022-08-19T06:00:30;14.88;;;12.07;;
61702;SDS011;47622;47.726;3.298;2022-08-19T06:02:56;16.48;;;13.30;;
61702;SDS011;47622;47.726;3.298;2022-08-19T06:05:24;16.13;;;13.07;;
61702;SDS011;47622;47.726;3.298;2022-08-19T06:07:50;15.52;;;12.18;;
61702;SDS011;47622;47.726;3.298;2022-08-19T06:10:16;14.25;;;12.05;;
61702;SDS011;47622;47.726;3.298;2022-08-19T06:12:42;13.32;;;11.25;;
61702;SDS011;47622;47.726;3.298;2022-08-19T06:15:09;16.02;;;11.73;;
61702;SDS011;47622;47.726;3.298;2022-08-19T06:17:36;13.50;;;11.48;;
61702;SDS011;47622;47.726;3.298;2022-08-19T06:20:03;15.88;;;11.57;;
61702;SDS011;47622;47.726;3.298;2022-08-19T06:22:30;15.75;;;10.85;;
61702;SDS011;47622;47.726;3.298;2022-08-19T06:24:56;12.43;;;10.93;;
61702;SDS011;47622;47.726;3.298;2022-08-19T06:27:23;12.43;;;10.32;;
61702;SDS011;47622;47.726;3.298;2022-08-19T06:29:49;12.30;;;10.05;;
61702;SDS011;47622;47.726;3.298;2022-08-19T06:32:16;14.95;;;11.27;;
61702;SDS011;47622;47.726;3.298;2022-08-19T06:34:44;12.70;;;10.02;;
61702;SDS011;47622;47.726;3.298;2022-08-19T06:37:10;13.15;;;10.57;;
61702;SDS011;47622;47.726;3.298;2022-08-19T06:39:38;11.73;;;10.40;;
61702;SDS011;47622;47.726;3.298;2022-08-19T06:42:06;12.77;;;10.70;;
61702;SDS011;47622;47.726;3.298;2022-08-19T06:44:37;13.63;;;11.55;;
61702;SDS011;47622;47.726;3.298;2022-08-19T06:47:06;13.63;;;10.02;;
61702;SDS011;47622;47.726;3.298;2022-08-19T06:49:34;12.45;;;10.27;;
61702;SDS011;47622;47.726;3.298;2022-08-19T06:52:01;13.30;;;10.57;;
61702;SDS011;47622;47.726;3.298;2022-08-19T06:54:28;11.15;;;9.95;;
61702;SDS011;47622;47.726;3.298;2022-08-19T06:56:57;12.18;;;9.13;;
61702;SDS011;47622;47.726;3.298;2022-08-19T06:59:25;16.92;;;10.80;;
61702;SDS011;47622;47.726;3.298;2022-08-19T07:01:56;11.90;;;9.00;;
61702;SDS011;47622;47.726;3.298;2022-08-19T07:04:24;11.73;;;8.25;;
61702;SDS011;47622;47.726;3.298;2022-08-19T07:06:57;11.85;;;9.15;;
61702;SDS011;47622;47.726;3.298;2022-08-19T07:09:24;11.05;;;8.63;;
61702;SDS011;47622;47.726;3.298;2022-08-19T07:11:51;10.70;;;9.35;;
61702;SDS011;47622;47.726;3.298;2022-08-19T07:14:19;12.75;;;8.80;;
61702;SDS011;47622;47.726;3.298;2022-08-19T07:16:48;13.32;;;9.65;;
61702;SDS011;47622;47.726;3.298;2022-08-19T07:19:17;13.70;;;9.27;;
61702;SDS011;47622;47.726;3.298;2022-08-19T07:21:44;10.32;;;8.45;;
61702;SDS011;47622;47.726;3.298;2022-08-19T07:24:11;9.75;;;8.02;;
61702;SDS011;47622;47.726;3.298;2022-08-19T07:26:38;14.45;;;8.65;;
61702;SDS011;47622;47.726;3.298;2022-08-19T07:29:05;8.98;;;7.68;;
61702;SDS011;47622;47.726;3.298;2022-08-19T07:31:32;9.68;;;8.05;;
61702;SDS011;47622;47.726;3.298;2022-08-19T07:34:02;10.30;;;7.80;;
61702;SDS011;47622;47.726;3.298;2022-08-19T07:36:35;10.48;;;7.55;;
61702;SDS011;47622;47.726;3.298;2022-08-19T07:39:05;12.80;;;7.97;;
61702;SDS011;47622;47.726;3.298;2022-08-19T07:41:34;11.30;;;7.07;;
61702;SDS011;47622;47.726;3.298;2022-08-19T07:44:02;11.77;;;7.55;;
61702;SDS011;47622;47.726;3.298;2022-08-19T07:46:33;15.10;;;8.25;;
61702;SDS011;47622;47.726;3.298;2022-08-19T07:49:02;11.70;;;8.18;;
61702;SDS011;47622;47.726;3.298;2022-08-19T07:51:28;10.30;;;7.85;;
61702;SDS011;47622;47.726;3.298;2022-08-19T07:53:54;13.05;;;8.65;;
61702;SDS011;47622;47.726;3.298;2022-08-19T07:56:21;11.95;;;7.43;;
61702;SDS011;47622;47.726;3.298;2022-08-19T07:58:47;9.02;;;6.53;;
61702;SDS011;47622;47.726;3.298;2022-08-19T08:01:17;7.63;;;6.45;;
61702;SDS011;47622;47.726;3.298;2022-08-19T08:03:47;8.75;;;6.80;;
61702;SDS011;47622;47.726;3.298;2022-08-19T08:06:32;9.13;;;6.65;;
61702;SDS011;47622;47.726;3.298;2022-08-19T08:09:18;10.65;;;6.70;;
61702;SDS011;47622;47.726;3.298;2022-08-19T08:11:52;10.00;;;7.78;;
61702;SDS011;47622;47.726;3.298;2022-08-19T08:14:26;8.90;;;7.82;;
61702;SDS011;47622;47.726;3.298;2022-08-19T08:16:54;10.43;;;7.43;;
61702;SDS011;47622;47.726;3.298;2022-08-19T08:19:21;9.43;;;6.85;;
61702;SDS011;47622;47.726;3.298;2022-08-19T08:21:48;8.13;;;6.85;;
61702;SDS011;47622;47.726;3.298;2022-08-19T08:24:14;11.88;;;7.32;;
61702;SDS011;47622;47.726;3.298;2022-08-19T08:26:40;8.40;;;6.55;;
61702;SDS011;47622;47.726;3.298;2022-08-19T08:29:09;8.70;;;5.78;;
61702;SDS011;47622;47.726;3.298;2022-08-19T08:31:38;7.97;;;5.80;;
61702;SDS011;47622;47.726;3.298;2022-08-19T08:34:06;7.80;;;5.05;;
61702;SDS011;47622;47.726;3.298;2022-08-19T08:36:35;9.55;;;6.30;;
61702;SDS011;47622;47.726;3.298;2022-08-19T08:39:05;8.73;;;5.25;;
61702;SDS011;47622;47.726;3.298;2022-08-19T08:41:47;9.02;;;5.20;;
61702;SDS011;47622;47.726;3.298;2022-08-19T08:44:28;6.38;;;5.65;;
61702;SDS011;47622;47.726;3.298;2022-08-19T08:47:06;13.02;;;4.88;;
61702;SDS011;47622;47.726;3.298;2022-08-19T08:52:26;6.57;;;4.60;;
61702;SDS011;47622;47.726;3.298;2022-08-19T08:54:57;7.15;;;3.88;;
61702;SDS011;47622;47.726;3.298;2022-08-19T08:57:36;9.57;;;4.18;;
61702;SDS011;47622;47.726;3.298;2022-08-19T09:00:32;5.38;;;3.53;;
61702;SDS011;47622;47.726;3.298;2022-08-19T09:03:00;5.60;;;3.80;;
61702;SDS011;47622;47.726;3.298;2022-08-19T09:06:03;5.13;;;3.60;;
61702;SDS011;47622;47.726;3.298;2022-08-19T09:08:33;8.20;;;3.80;;
61702;SDS011;47622;47.726;3.298;2022-08-19T09:11:00;7.35;;;3.85;;
61702;SDS011;47622;47.726;3.298;2022-08-19T09:16:09;5.93;;;3.97;;
61702;SDS011;47622;47.726;3.298;2022-08-19T09:18:45;7.15;;;4.25;;
61702;SDS011;47622;47.726;3.298;2022-08-19T09:21:17;7.95;;;3.95;;
61702;SDS011;47622;47.726;3.298;2022-08-19T09:23:44;5.18;;;4.45;;
61702;SDS011;47622;47.726;3.298;2022-08-19T09:26:11;5.63;;;4.50;;
61702;SDS011;47622;47.726;3.298;2022-08-19T09:28:40;7.60;;;5.15;;
61702;SDS011;47622;47.726;3.298;2022-08-19T09:31:10;7.80;;;4.50;;
61702;SDS011;47622;47.726;3.298;2022-08-19T09:33:38;6.35;;;4.85;;
61702;SDS011;47622;47.726;3.298;2022-08-19T09:36:05;8.52;;;4.90;;
61702;SDS011;47622;47.726;3.298;2022-08-19T09:38:33;6.75;;;4.75;;
61702;SDS011;47622;47.726;3.298;2022-08-19T09:41:05;6.22;;;4.38;;
61702;SDS011;47622;47.726;3.298;2022-08-19T09:43:36;8.35;;;4.40;;
61702;SDS011;47622;47.726;3.298;2022-08-19T09:46:03;5.90;;;4.45;;
61702;SDS011;47622;47.726;3.298;2022-08-19T09:48:37;5.72;;;4.63;;
61702;SDS011;47622;47.726;3.298;2022-08-19T09:51:11;6.18;;;4.25;;
61702;SDS011;47622;47.726;3.298;2022-08-19T09:53:42;8.05;;;4.40;;
61702;SDS011;47622;47.726;3.298;2022-08-19T09:56:09;8.02;;;4.90;;
61702;SDS011;47622;47.726;3.298;2022-08-19T09:58:37;6.22;;;4.57;;
61702;SDS011;47622;47.726;3.298;2022-08-19T10:01:04;5.00;;;4.50;;
61702;SDS011;47622;47.726;3.298;2022-08-19T10:03:31;5.78;;;4.47;;
61702;SDS011;47622;47.726;3.298;2022-08-19T10:05:58;4.10;;;3.70;;
61702;SDS011;47622;47.726;3.298;2022-08-19T10:08:30;4.47;;;3.60;;
61702;SDS011;47622;47.726;3.298;2022-08-19T10:10:59;4.25;;;3.00;;
61702;SDS011;47622;47.726;3.298;2022-08-19T10:13:27;4.03;;;2.75;;
61702;SDS011;47622;47.726;3.298;2022-08-19T10:15:55;5.47;;;2.90;;
61702;SDS011;47622;47.726;3.298;2022-08-19T10:18:27;4.90;;;2.53;;
61702;SDS011;47622;47.726;3.298;2022-08-19T10:21:01;4.30;;;2.38;;
61702;SDS011;47622;47.726;3.298;2022-08-19T10:23:35;5.95;;;2.50;;
61702;SDS011;47622;47.726;3.298;2022-08-19T10:26:03;4.35;;;2.88;;
61702;SDS011;47622;47.726;3.298;2022-08-19T10:28:31;3.05;;;2.65;;
61702;SDS011;47622;47.726;3.298;2022-08-19T10:31:06;4.45;;;2.20;;
61702;SDS011;47622;47.726;3.298;2022-08-19T10:33:37;3.42;;;2.50;;
61702;SDS011;47622;47.726;3.298;2022-08-19T10:36:10;3.85;;;2.17;;
61702;SDS011;47622;47.726;3.298;2022-08-19T10:38:43;3.83;;;3.00;;
61702;SDS011;47622;47.726;3.298;2022-08-19T10:41:16;5.15;;;2.65;;
61702;SDS011;47622;47.726;3.298;2022-08-19T10:43:47;6.13;;;2.50;;
61702;SDS011;47622;47.726;3.298;2022-08-19T10:46:15;5.30;;;3.13;;
61702;SDS011;47622;47.726;3.298;2022-08-19T10:48:42;5.38;;;3.83;;
61702;SDS011;47622;47.726;3.298;2022-08-19T10:51:09;5.47;;;3.05;;
61702;SDS011;47622;47.726;3.298;2022-08-19T10:53:54;3.83;;;2.60;;
61702;SDS011;47622;47.726;3.298;2022-08-19T10:56:21;5.53;;;2.60;;
61702;SDS011;47622;47.726;3.298;2022-08-19T10:59:05;3.45;;;2.13;;
61702;SDS011;47622;47.726;3.298;2022-08-19T11:01:31;3.45;;;2.10;;
61702;SDS011;47622;47.726;3.298;2022-08-19T11:04:01;2.85;;;2.08;;
61702;SDS011;47622;47.726;3.298;2022-08-19T11:06:30;3.47;;;1.80;;
61702;SDS011;47622;47.726;3.298;2022-08-19T11:08:57;4.18;;;2.20;;
61702;SDS011;47622;47.726;3.298;2022-08-19T11:11:23;6.70;;;1.80;;
61702;SDS011;47622;47.726;3.298;2022-08-19T11:13:49;2.63;;;1.73;;
61702;SDS011;47622;47.726;3.298;2022-08-19T11:16:17;2.80;;;1.88;;
61702;SDS011;47622;47.726;3.298;2022-08-19T11:18:48;2.78;;;1.80;;
61702;SDS011;47622;47.726;3.298;2022-08-19T11:21:26;1.90;;;1.60;;
61702;SDS011;47622;47.726;3.298;2022-08-19T11:23:58;2.10;;;1.88;;
61702;SDS011;47622;47.726;3.298;2022-08-19T11:26:25;1.67;;;1.30;;
61702;SDS011;47622;47.726;3.298;2022-08-19T11:28:52;2.45;;;1.40;;
61702;SDS011;47622;47.726;3.298;2022-08-19T11:31:20;1.40;;;1.30;;
61702;SDS011;47622;47.726;3.298;2022-08-19T11:33:48;2.50;;;1.90;;
61702;SDS011;47622;47.726;3.298;2022-08-19T11:36:17;3.03;;;1.60;;
61702;SDS011;47622;47.726;3.298;2022-08-19T11:38:45;2.08;;;1.35;;
61702;SDS011;47622;47.726;3.298;2022-08-19T11:41:14;4.68;;;1.67;;
61702;SDS011;47622;47.726;3.298;2022-08-19T11:43:42;1.45;;;1.30;;
61702;SDS011;47622;47.726;3.298;2022-08-19T11:46:09;4.43;;;1.50;;
61702;SDS011;47622;47.726;3.298;2022-08-19T11:48:37;2.85;;;1.50;;
61702;SDS011;47622;47.726;3.298;2022-08-19T11:51:05;3.90;;;1.60;;
61702;SDS011;47622;47.726;3.298;2022-08-19T11:53:34;2.40;;;1.58;;
61702;SDS011;47622;47.726;3.298;2022-08-19T11:56:00;1.98;;;1.50;;
61702;SDS011;47622;47.726;3.298;2022-08-19T11:58:26;5.53;;;1.73;;
61702;SDS011;47622;47.726;3.298;2022-08-19T12:00:54;1.88;;;1.73;;
61702;SDS011;47622;47.726;3.298;2022-08-19T12:03:20;2.03;;;1.63;;
61702;SDS011;47622;47.726;3.298;2022-08-19T12:05:46;2.58;;;1.67;;
61702;SDS011;47622;47.726;3.298;2022-08-19T12:08:12;2.40;;;1.88;;
61702;SDS011;47622;47.726;3.298;2022-08-19T12:10:39;1.77;;;1.67;;
61702;SDS011;47622;47.726;3.298;2022-08-19T12:13:07;2.85;;;1.88;;
61702;SDS011;47622;47.726;3.298;2022-08-19T12:15:37;2.05;;;1.80;;
61702;SDS011;47622;47.726;3.298;2022-08-19T12:18:06;2.17;;;1.80;;
61702;SDS011;47622;47.726;3.298;2022-08-19T12:20:35;1.73;;;1.60;;
61702;SDS011;47622;47.726;3.298;2022-08-19T12:23:02;5.45;;;2.00;;
61702;SDS011;47622;47.726;3.298;2022-08-19T12:25:29;2.50;;;1.90;;
61702;SDS011;47622;47.726;3.298;2022-08-19T12:27:56;3.42;;;2.00;;
61702;SDS011;47622;47.726;3.298;2022-08-19T12:30:22;2.60;;;2.13;;
61702;SDS011;47622;47.726;3.298;2022-08-19T12:32:49;3.20;;;1.73;;
61702;SDS011;47622;47.726;3.298;2022-08-19T12:35:16;2.08;;;1.88;;
61702;SDS011;47622;47.726;3.298;2022-08-19T12:37:45;4.15;;;1.88;;
61702;SDS011;47622;47.726;3.298;2022-08-19T12:40:12;3.10;;;2.25;;
61702;SDS011;47622;47.726;3.298;2022-08-19T12:42:39;4.22;;;1.90;;
61702;SDS011;47622;47.726;3.298;2022-08-19T12:45:09;3.35;;;2.00;;
61702;SDS011;47622;47.726;3.298;2022-08-19T12:47:36;2.60;;;1.90;;
61702;SDS011;47622;47.726;3.298;2022-08-19T12:50:02;2.40;;;2.00;;
61702;SDS011;47622;47.726;3.298;2022-08-19T12:52:33;3.85;;;1.83;;
61702;SDS011;47622;47.726;3.298;2022-08-19T12:55:02;1.85;;;1.65;;
61702;SDS011;47622;47.726;3.298;2022-08-19T12:57:30;1.65;;;1.55;;
61702;SDS011;47622;47.726;3.298;2022-08-19T12:59:59;3.40;;;1.88;;
61702;SDS011;47622;47.726;3.298;2022-08-19T13:02:39;2.33;;;1.65;;
61702;SDS011;47622;47.726;3.298;2022-08-19T13:05:07;2.25;;;1.90;;
61702;SDS011;47622;47.726;3.298;2022-08-19T13:07:35;4.22;;;2.00;;
61702;SDS011;47622;47.726;3.298;2022-08-19T13:10:02;5.80;;;2.00;;
61702;SDS011;47622;47.726;3.298;2022-08-19T13:12:28;3.03;;;2.05;;
61702;SDS011;47622;47.726;3.298;2022-08-19T13:14:54;4.38;;;1.88;;
61702;SDS011;47622;47.726;3.298;2022-08-19T13:17:20;2.38;;;2.17;;
61702;SDS011;47622;47.726;3.298;2022-08-19T13:19:47;3.58;;;2.17;;
61702;SDS011;47622;47.726;3.298;2022-08-19T13:22:13;3.58;;;2.40;;
61702;SDS011;47622;47.726;3.298;2022-08-19T13:24:39;3.60;;;2.40;;
61702;SDS011;47622;47.726;3.298;2022-08-19T13:27:05;3.45;;;2.08;;
61702;SDS011;47622;47.726;3.298;2022-08-19T13:29:32;5.03;;;2.53;;
61702;SDS011;47622;47.726;3.298;2022-08-19T13:32:16;3.45;;;2.53;;
61702;SDS011;47622;47.726;3.298;2022-08-19T13:35:00;2.90;;;2.30;;
61702;SDS011;47622;47.726;3.298;2022-08-19T13:37:27;2.70;;;2.30;;
61702;SDS011;47622;47.726;3.298;2022-08-19T13:40:12;2.70;;;2.35;;
61702;SDS011;47622;47.726;3.298;2022-08-19T13:42:43;2.95;;;2.40;;
61702;SDS011;47622;47.726;3.298;2022-08-19T13:45:11;2.45;;;2.03;;
61702;SDS011;47622;47.726;3.298;2022-08-19T13:47:39;2.38;;;2.10;;
61702;SDS011;47622;47.726;3.298;2022-08-19T13:50:09;2.40;;;1.90;;
61702;SDS011;47622;47.726;3.298;2022-08-19T13:52:38;1.70;;;1.30;;
61702;SDS011;47622;47.726;3.298;2022-08-19T13:55:05;2.05;;;1.70;;
61702;SDS011;47622;47.726;3.298;2022-08-19T13:57:31;1.58;;;1.40;;
61702;SDS011;47622;47.726;3.298;2022-08-19T13:59:58;1.60;;;1.40;;
61702;SDS011;47622;47.726;3.298;2022-08-19T14:02:24;1.98;;;1.50;;
61702;SDS011;47622;47.726;3.298;2022-08-19T14:04:51;1.60;;;1.30;;
61702;SDS011;47622;47.726;3.298;2022-08-19T14:07:17;2.70;;;1.38;;
61702;SDS011;47622;47.726;3.298;2022-08-19T14:09:43;1.92;;;1.40;;
61702;SDS011;47622;47.726;3.298;2022-08-19T14:12:09;1.70;;;1.60;;
61702;SDS011;47622;47.726;3.298;2022-08-19T14:14:36;4.40;;;1.50;;
61702;SDS011;47622;47.726;3.298;2022-08-19T14:17:06;3.20;;;1.70;;
61702;SDS011;47622;47.726;3.298;2022-08-19T14:19:32;2.65;;;2.00;;
61702;SDS011;47622;47.726;3.298;2022-08-19T14:21:59;2.10;;;1.90;;
61702;SDS011;47622;47.726;3.298;2022-08-19T14:24:24;4.13;;;1.95;;
61702;SDS011;47622;47.726;3.298;2022-08-19T14:26:50;4.57;;;2.03;;
61702;SDS011;47622;47.726;3.298;2022-08-19T14:29:16;2.85;;;1.90;;
61702;SDS011;47622;47.726;3.298;2022-08-19T14:31:42;4.55;;;1.90;;
61702;SDS011;47622;47.726;3.298;2022-08-19T14:34:08;2.53;;;1.88;;
61702;SDS011;47622;47.726;3.298;2022-08-19T14:36:35;2.03;;;1.70;;
61702;SDS011;47622;47.726;3.298;2022-08-19T14:39:02;4.07;;;1.90;;
61702;SDS011;47622;47.726;3.298;2022-08-19T14:41:28;1.95;;;1.75;;
61702;SDS011;47622;47.726;3.298;2022-08-19T14:43:55;3.85;;;1.85;;
61702;SDS011;47622;47.726;3.298;2022-08-19T14:46:23;4.68;;;2.03;;
61702;SDS011;47622;47.726;3.298;2022-08-19T14:48:51;4.50;;;2.22;;
61702;SDS011;47622;47.726;3.298;2022-08-19T14:51:18;2.70;;;1.80;;